createdAt,value
2018-09-22T00:00:39.496Z,2.1
2018-09-22T00:01:57.386Z,1.8
2018-09-22T00:02:40.590Z,1.6
2018-09-22T00:04:39.578Z,1.8
2018-09-22T00:05:39.868Z,1.3
2018-09-22T00:06:39.871Z,1.6
2018-09-22T00:07:39.986Z,1.7
2018-09-22T00:08:40.224Z,1.6
2018-09-22T00:09:40.283Z,2.1
2018-09-22T00:10:40.301Z,1.7
2018-09-22T00:11:40.281Z,1.9
2018-09-22T00:12:40.516Z,1.8
2018-09-22T00:13:40.561Z,1.6
2018-09-22T00:14:40.572Z,1.7
2018-09-22T00:15:40.575Z,1.9
2018-09-22T00:17:40.665Z,1.7
2018-09-22T00:19:40.890Z,1.7
2018-09-22T00:20:40.764Z,1.7
2018-09-22T00:21:40.699Z,1.8
2018-09-22T00:22:40.814Z,1.7
2018-09-22T00:23:40.908Z,1.7
2018-09-22T00:24:41.103Z,1.9
2018-09-22T00:25:40.885Z,1.8
2018-09-22T00:26:41.077Z,1.9
2018-09-22T00:27:41.286Z,2
2018-09-22T00:28:41.082Z,1.8
2018-09-22T00:29:41.219Z,1.8
2018-09-22T00:30:41.388Z,1.7
2018-09-22T00:31:41.413Z,2
2018-09-22T00:32:41.590Z,1.9
2018-09-22T00:33:41.548Z,1.6
2018-09-22T00:34:41.693Z,1.7
2018-09-22T00:35:59.793Z,1.9
2018-09-22T00:36:42.985Z,1.9
2018-09-22T00:37:41.973Z,1.8
2018-09-22T00:38:42.136Z,1.6
2018-09-22T00:39:42.200Z,1.7
2018-09-22T00:40:42.277Z,1.8
2018-09-22T00:41:42.221Z,1.8
2018-09-22T00:42:42.389Z,1.8
2018-09-22T00:43:42.560Z,1.9
2018-09-22T00:44:42.435Z,1.9
2018-09-22T00:45:42.604Z,1.9
2018-09-22T00:46:42.684Z,1.9
2018-09-22T00:47:42.981Z,1.4
2018-09-22T00:49:43.042Z,1.8
2018-09-22T00:50:43.200Z,1.8
2018-09-22T00:52:01.224Z,2.1
2018-09-22T00:52:43.474Z,2.1
2018-09-22T00:53:43.496Z,2
2018-09-22T00:54:43.729Z,1.9
2018-09-22T00:55:43.747Z,1.8
2018-09-22T00:56:43.686Z,2.1
2018-09-22T00:57:43.841Z,2.4
2018-09-22T00:58:43.930Z,1.8
2018-09-22T00:59:44.034Z,2
2018-09-22T01:01:01.916Z,1.9
2018-09-22T01:01:44.034Z,1.9
2018-09-22T01:02:44.265Z,1.8
2018-09-22T01:03:44.385Z,2.2
2018-09-22T01:04:44.349Z,1.9
2018-09-22T01:05:44.416Z,1.8
2018-09-22T01:06:44.576Z,1.9
2018-09-22T01:07:44.550Z,2
2018-09-22T01:08:44.622Z,1.8
2018-09-22T01:09:44.756Z,2.1
2018-09-22T01:10:44.903Z,1.8
2018-09-22T01:11:45.070Z,2.1
2018-09-22T01:12:45.040Z,2
2018-09-22T01:14:45.290Z,1.9
2018-09-22T01:15:45.308Z,2.1
2018-09-22T01:16:45.257Z,1.9
2018-09-22T01:17:45.389Z,2
2018-09-22T01:18:45.679Z,2
2018-09-22T01:19:45.854Z,1.9
2018-09-22T01:20:45.695Z,1.9
2018-09-22T01:21:45.652Z,1.8
2018-09-22T01:22:45.892Z,2.3
2018-09-22T01:23:45.949Z,1.8
2018-09-22T01:24:46.029Z,2
2018-09-22T01:25:46.005Z,2
2018-09-22T01:26:46.203Z,2
2018-09-22T01:27:46.139Z,2.1
2018-09-22T01:28:46.253Z,1.8
2018-09-22T01:29:46.334Z,2.1
2018-09-22T01:30:46.304Z,2.1
2018-09-22T01:32:04.385Z,1.9
2018-09-22T01:32:46.531Z,1.7
2018-09-22T01:33:46.670Z,1.9
2018-09-22T01:34:46.974Z,1.7
2018-09-22T01:35:47.009Z,1.8
2018-09-22T01:36:46.953Z,1.8
2018-09-22T01:37:47.174Z,2
2018-09-22T01:39:05.219Z,1.9
2018-09-22T01:39:47.236Z,1.9
2018-09-22T01:40:47.182Z,1.8
2018-09-22T01:41:47.350Z,1.5
2018-09-22T01:42:47.388Z,1.9
2018-09-22T01:43:47.413Z,1.8
2018-09-22T01:44:47.455Z,1.7
2018-09-22T01:45:47.614Z,1.7
2018-09-22T01:46:47.600Z,1.8
2018-09-22T01:47:47.591Z,1.7
2018-09-22T01:48:47.760Z,1.7
2018-09-22T01:49:47.900Z,1.9
2018-09-22T01:50:47.847Z,1.7
2018-09-22T01:51:47.964Z,1.8
2018-09-22T01:52:48.154Z,1.8
2018-09-22T01:53:48.158Z,1.7
2018-09-22T01:54:48.152Z,1.8
2018-09-22T01:55:48.256Z,1.7
2018-09-22T01:56:48.514Z,1.6
2018-09-22T01:57:48.680Z,1.6
2018-09-22T01:58:48.637Z,1.6
2018-09-22T01:59:48.801Z,2.1
2018-09-22T02:00:48.773Z,1.9
2018-09-22T02:01:48.971Z,1.6
2018-09-22T02:02:48.945Z,1.9
2018-09-22T02:03:48.900Z,1.5
2018-09-22T02:04:49.078Z,1.5
2018-09-22T02:05:49.186Z,1.7
2018-09-22T02:06:49.176Z,1.4
2018-09-22T02:07:49.141Z,2
2018-09-22T02:08:49.403Z,2
2018-09-22T02:10:07.373Z,2
2018-09-22T02:10:49.397Z,2
2018-09-22T02:11:49.403Z,2.1
2018-09-22T02:12:49.442Z,2
2018-09-22T02:13:49.396Z,1.8
2018-09-22T02:14:49.385Z,1.9
2018-09-22T02:15:49.506Z,2
2018-09-22T02:16:49.505Z,1.8
2018-09-22T02:17:49.459Z,1.9
2018-09-22T02:18:49.576Z,2.1
2018-09-22T02:19:49.747Z,1.9
2018-09-22T02:20:49.749Z,2
2018-09-22T02:23:07.730Z,1.9
2018-09-22T02:23:49.988Z,1.8
2018-09-22T02:24:49.938Z,2.2
2018-09-22T02:25:50.151Z,2
2018-09-22T02:26:50.252Z,1.6
2018-09-22T02:27:50.272Z,1.8
2018-09-22T02:28:50.201Z,1.6
2018-09-22T02:29:50.329Z,2
2018-09-22T02:30:50.451Z,1.9
2018-09-22T02:31:50.661Z,1.6
2018-09-22T02:32:50.613Z,2.1
2018-09-22T02:33:50.727Z,1.9
2018-09-22T02:34:50.948Z,1.8
2018-09-22T02:35:50.959Z,1.8
2018-09-22T02:36:51.043Z,2
2018-09-22T02:37:51.126Z,1.9
2018-09-22T02:38:51.362Z,1.9
2018-09-22T02:39:51.406Z,1.5
2018-09-22T02:40:51.350Z,1.9
2018-09-22T02:41:51.565Z,1.9
2018-09-22T02:43:09.431Z,1.7
2018-09-22T02:43:51.630Z,1.5
2018-09-22T02:44:51.695Z,2.1
2018-09-22T02:45:51.854Z,1.5
2018-09-22T02:47:52.221Z,1.6
2018-09-22T02:48:52.178Z,1.5
2018-09-22T02:49:52.288Z,1.6
2018-09-22T02:50:52.484Z,1.6
2018-09-22T02:52:52.529Z,1.8
2018-09-22T02:53:52.631Z,2
2018-09-22T02:54:52.842Z,1.7
2018-09-22T02:55:53.103Z,1.6
2018-09-22T02:56:52.893Z,1.7
2018-09-22T02:57:53.040Z,1.6
2018-09-22T02:58:53.156Z,1.7
2018-09-22T02:59:53.164Z,1.7
2018-09-22T03:01:53.152Z,1.6
2018-09-22T03:02:53.362Z,1.8
2018-09-22T03:04:11.327Z,1.6
2018-09-22T03:04:53.330Z,2.1
2018-09-22T03:05:53.441Z,1.6
2018-09-22T03:06:53.916Z,1.6
2018-09-22T03:07:53.741Z,1.8
2018-09-22T03:08:53.734Z,1.6
2018-09-22T03:09:53.759Z,1.9
2018-09-22T03:10:54.021Z,1.7
2018-09-22T03:11:54.080Z,1.9
2018-09-22T03:12:54.072Z,1.6
2018-09-22T03:13:54.216Z,1.5
2018-09-22T03:14:54.368Z,1.6
2018-09-22T03:15:54.520Z,1.6
2018-09-22T03:16:54.499Z,1.6
2018-09-22T03:17:54.644Z,1.8
2018-09-22T03:18:54.911Z,1.8
2018-09-22T03:19:54.860Z,1.4
2018-09-22T03:23:13.118Z,1.9
2018-09-22T03:24:13.062Z,1.6
2018-09-22T03:24:55.217Z,1.9
2018-09-22T03:25:55.382Z,1.6
2018-09-22T03:27:13.323Z,1.7
2018-09-22T03:27:55.370Z,1.7
2018-09-22T03:28:55.542Z,1.7
2018-09-22T03:29:55.563Z,1.7
2018-09-22T03:30:55.553Z,1.8
2018-09-22T03:32:13.593Z,1.8
2018-09-22T03:32:55.764Z,1.9
2018-09-22T03:33:56.010Z,1.6
2018-09-22T03:34:56.115Z,1.8
2018-09-22T03:35:56.164Z,1.8
2018-09-22T03:36:56.068Z,1.8
2018-09-22T03:38:14.216Z,1.6
2018-09-22T03:38:56.231Z,1.7
2018-09-22T03:39:56.375Z,1.9
2018-09-22T03:40:56.592Z,1.6
2018-09-22T03:41:56.659Z,1.4
2018-09-22T03:42:56.610Z,1.8
2018-09-22T03:43:56.736Z,1.8
2018-09-22T03:44:56.972Z,1.9
2018-09-22T03:45:56.985Z,2.2
2018-09-22T03:46:56.940Z,2
2018-09-22T03:47:56.960Z,1.9
2018-09-22T03:48:57.078Z,2.1
2018-09-22T03:49:57.203Z,1.8
2018-09-22T03:50:57.371Z,1.8
2018-09-22T03:51:57.307Z,1.8
2018-09-22T03:52:57.454Z,2
2018-09-22T03:53:57.708Z,1.7
2018-09-22T03:54:57.694Z,1.8
2018-09-22T03:55:57.694Z,1.9
2018-09-22T03:56:57.720Z,2.1
2018-09-22T03:57:57.781Z,1.8
2018-09-22T03:58:57.949Z,1.9
2018-09-22T04:00:15.627Z,2
2018-09-22T04:00:58.000Z,1.9
2018-09-22T04:01:58.025Z,1.9
2018-09-22T04:02:57.815Z,1.7
2018-09-22T04:03:58.005Z,1.7
2018-09-22T04:04:58.006Z,1.7
2018-09-22T04:05:58.029Z,2.1
2018-09-22T04:06:58.058Z,1.7
2018-09-22T04:07:58.209Z,1.6
2018-09-22T04:08:58.310Z,1.7
2018-09-22T04:09:58.434Z,1.6
2018-09-22T04:10:58.308Z,2.1
2018-09-22T04:11:58.598Z,1.8
2018-09-22T04:12:58.611Z,1.8
2018-09-22T04:13:58.537Z,1.9
2018-09-22T04:14:58.623Z,1.9
2018-09-22T04:15:58.940Z,1.9
2018-09-22T04:16:59.056Z,1.7
2018-09-22T04:17:58.988Z,1.9
2018-09-22T04:18:59.127Z,2
2018-09-22T04:19:59.275Z,1.6
2018-09-22T04:20:59.476Z,1.9
2018-09-22T04:21:59.502Z,2.1
2018-09-22T04:22:59.425Z,1.7
2018-09-22T04:23:59.615Z,2.2
2018-09-22T04:24:59.660Z,1.7
2018-09-22T04:25:59.633Z,1.7
2018-09-22T04:26:59.856Z,1.5
2018-09-22T04:27:59.981Z,1.9
2018-09-22T04:30:00.078Z,1.9
2018-09-22T04:31:00.220Z,1.8
2018-09-22T04:32:00.280Z,1.9
2018-09-22T04:33:00.268Z,1.6
2018-09-22T04:34:00.344Z,1.8
2018-09-22T04:35:00.558Z,2.1
2018-09-22T04:36:00.628Z,2.5
2018-09-22T04:37:00.642Z,2.4
2018-09-22T04:38:00.628Z,2.4
2018-09-22T04:39:18.716Z,2.4
2018-09-22T04:40:18.778Z,1.7
2018-09-22T04:41:00.938Z,2
2018-09-22T04:43:01.282Z,1.9
2018-09-22T04:44:01.287Z,2.1
2018-09-22T04:45:01.418Z,1.9
2018-09-22T04:46:01.480Z,1.9
2018-09-22T04:47:01.684Z,2
2018-09-22T04:48:01.739Z,1.8
2018-09-22T04:49:01.713Z,1.8
2018-09-22T04:50:01.827Z,1.8
2018-09-22T04:51:19.687Z,1.8
2018-09-22T04:52:01.983Z,1.9
2018-09-22T04:53:01.925Z,2
2018-09-22T04:54:01.931Z,2
2018-09-22T04:55:02.090Z,1.8
2018-09-22T04:56:02.113Z,2.1
2018-09-22T04:57:02.119Z,1.9
2018-09-22T04:58:02.091Z,1.9
2018-09-22T04:59:02.144Z,1.8
2018-09-22T05:00:02.192Z,2
2018-09-22T05:01:02.230Z,1.9
2018-09-22T05:02:02.367Z,2.3
2018-09-22T05:03:02.478Z,1.8
2018-09-22T05:04:02.617Z,1.8
2018-09-22T05:05:02.658Z,2.3
2018-09-22T05:06:02.724Z,1.7
2018-09-22T05:07:03.800Z,1.6
2018-09-22T05:08:02.853Z,1.7
2018-09-22T05:09:02.918Z,1.8
2018-09-22T05:10:03.104Z,1.7
2018-09-22T05:11:03.153Z,2
2018-09-22T05:12:03.047Z,1.5
2018-09-22T05:13:03.083Z,1.7
2018-09-22T05:14:03.337Z,1.8
2018-09-22T05:15:03.271Z,2.2
2018-09-22T05:16:03.361Z,2.1
2018-09-22T05:17:03.528Z,1.8
2018-09-22T05:18:03.685Z,1.8
2018-09-22T05:19:03.692Z,1.8
2018-09-22T05:20:03.631Z,2.2
2018-09-22T05:21:03.741Z,1.7
2018-09-22T05:22:03.775Z,2
2018-09-22T05:23:03.852Z,1.7
2018-09-22T05:24:03.998Z,2
2018-09-22T05:25:04.165Z,2
2018-09-22T05:26:04.173Z,2.2
2018-09-22T05:27:04.061Z,2.2
2018-09-22T05:28:04.117Z,2.1
2018-09-22T05:29:04.252Z,2.1
2018-09-22T05:30:04.419Z,2
2018-09-22T05:31:04.539Z,1.6
2018-09-22T05:32:22.553Z,2
2018-09-22T05:33:04.787Z,2
2018-09-22T05:34:04.886Z,1.7
2018-09-22T05:35:04.965Z,2
2018-09-22T05:36:05.154Z,2
2018-09-22T05:37:05.283Z,2.1
2018-09-22T05:38:05.341Z,2.1
2018-09-22T05:39:05.259Z,2
2018-09-22T05:40:23.293Z,2
2018-09-22T05:41:05.513Z,2.1
2018-09-22T05:42:05.836Z,1.9
2018-09-22T05:43:06.721Z,2
2018-09-22T05:44:23.749Z,2.1
2018-09-22T05:45:05.960Z,2
2018-09-22T05:46:06.259Z,2
2018-09-22T05:47:06.167Z,1.9
2018-09-22T05:48:06.185Z,2
2018-09-22T05:50:06.450Z,2.4
2018-09-22T05:51:06.249Z,2
2018-09-22T05:52:06.335Z,2.1
2018-09-22T05:53:06.514Z,2.2
2018-09-22T05:54:06.436Z,2.6
2018-09-22T05:55:06.530Z,2.2
2018-09-22T05:56:24.553Z,2.4
2018-09-22T05:57:06.862Z,2.4
2018-09-22T05:58:06.825Z,2.3
2018-09-22T05:59:06.880Z,2.2
2018-09-22T06:00:06.918Z,2
2018-09-22T06:01:07.066Z,2
2018-09-22T06:02:07.195Z,2.4
2018-09-22T06:03:07.092Z,2.1
2018-09-22T06:04:07.151Z,1.9
2018-09-22T06:05:25.103Z,2.1
2018-09-22T06:06:07.321Z,2.2
2018-09-22T06:07:25.318Z,2.2
2018-09-22T06:09:07.647Z,1.9
2018-09-22T06:10:07.706Z,1.9
2018-09-22T06:11:25.638Z,2.2
2018-09-22T06:12:07.955Z,2.3
2018-09-22T06:13:07.906Z,2
2018-09-22T06:14:07.976Z,2.2
2018-09-22T06:15:08.045Z,2.3
2018-09-22T06:16:08.188Z,2.3
2018-09-22T06:17:08.392Z,2.4
2018-09-22T06:18:08.409Z,1.9
2018-09-22T06:19:08.475Z,2.3
2018-09-22T06:20:08.574Z,2.3
2018-09-22T06:21:08.791Z,2.3
2018-09-22T06:22:09.832Z,2.6
2018-09-22T06:23:08.846Z,2.5
2018-09-22T06:24:08.941Z,2
2018-09-22T06:25:09.147Z,2
2018-09-22T06:26:09.106Z,2.1
2018-09-22T06:27:09.351Z,2.1
2018-09-22T06:28:09.346Z,2.1
2018-09-22T06:29:09.498Z,1.7
2018-09-22T06:30:09.614Z,2.2
2018-09-22T06:31:09.718Z,2
2018-09-22T06:32:09.869Z,1.9
2018-09-22T06:33:10.118Z,1.9
2018-09-22T06:34:10.032Z,1.9
2018-09-22T06:35:10.020Z,2.1
2018-09-22T06:36:10.216Z,2
2018-09-22T06:37:10.216Z,1.9
2018-09-22T06:38:11.244Z,2
2018-09-22T06:39:10.280Z,2
2018-09-22T06:41:10.344Z,1.9
2018-09-22T06:42:10.332Z,2.1
2018-09-22T06:43:10.687Z,2.1
2018-09-22T06:44:10.537Z,2.3
2018-09-22T06:45:10.608Z,2.2
2018-09-22T06:46:10.622Z,1.8
2018-09-22T06:48:10.754Z,2.2
2018-09-22T06:49:28.716Z,2.1
2018-09-22T06:51:11.035Z,2.3
2018-09-22T06:52:11.114Z,2.1
2018-09-22T06:53:11.201Z,2.4
2018-09-22T06:54:11.201Z,2.1
2018-09-22T06:55:11.266Z,1.9
2018-09-22T06:56:11.494Z,2.3
2018-09-22T06:57:11.548Z,1.8
2018-09-22T06:58:29.416Z,2.6
2018-09-22T07:00:29.505Z,2.2
2018-09-22T07:01:29.637Z,2.4
2018-09-22T07:02:29.716Z,2
2018-09-22T07:03:11.993Z,1.9
2018-09-22T07:04:12.010Z,2
2018-09-22T07:05:11.893Z,2.6
2018-09-22T07:07:12.156Z,2.4
2018-09-22T07:08:30.006Z,2.3
2018-09-22T07:10:12.353Z,2.1
2018-09-22T07:11:12.467Z,1.9
2018-09-22T07:12:12.423Z,2.3
2018-09-22T07:13:12.598Z,2
2018-09-22T07:14:30.775Z,2.2
2018-09-22T07:15:30.754Z,2.1
2018-09-22T07:17:31.189Z,2.2
2018-09-22T07:19:31.131Z,2.4
2018-09-22T07:20:13.170Z,2.2
2018-09-22T07:21:31.260Z,2.4
2018-09-22T07:23:13.571Z,2.1
2018-09-22T07:24:13.519Z,2.1
2018-09-22T07:25:13.651Z,2.6
2018-09-22T07:26:13.730Z,2.3
2018-09-22T07:27:31.546Z,2.1
2018-09-22T07:28:13.662Z,2.1
2018-09-22T07:29:13.970Z,2
2018-09-22T07:30:14.163Z,2.2
2018-09-22T07:31:32.012Z,2.3
2018-09-22T07:32:14.132Z,1.9
2018-09-22T07:33:32.220Z,2.3
2018-09-22T07:34:32.256Z,2
2018-09-22T07:35:14.543Z,2.4
2018-09-22T07:36:32.345Z,2
2018-09-22T07:38:14.740Z,2.1
2018-09-22T07:40:32.728Z,2.7
2018-09-22T07:41:32.850Z,2.5
2018-09-22T07:42:33.170Z,2.8
2018-09-22T07:43:33.109Z,2.8
2018-09-22T07:45:56.099Z,2.2
2018-09-22T07:46:30.988Z,2.2
2018-09-22T07:47:30.996Z,2.1
2018-09-22T07:48:31.175Z,2
2018-09-22T07:49:31.252Z,1.9
2018-09-22T07:50:49.142Z,2.1
2018-09-22T07:51:31.409Z,2.2
2018-09-22T07:52:31.410Z,1.8
2018-09-22T07:53:49.410Z,2.2
2018-09-22T07:54:31.476Z,1.7
2018-09-22T07:55:31.643Z,2.7
2018-09-22T07:56:31.862Z,2.6
2018-09-22T07:57:31.675Z,2.7
2018-09-22T08:00:45.265Z,2.5
2018-09-22T08:01:01.251Z,2.3
2018-09-22T08:02:01.464Z,2.4
2018-09-22T08:03:19.413Z,2.7
2018-09-22T08:04:19.374Z,2.5
2018-09-22T08:05:19.461Z,2.3
2018-09-22T08:06:01.790Z,2.3
2018-09-22T08:07:01.768Z,2.2
2018-09-22T08:08:19.690Z,2.3
2018-09-22T08:11:00.745Z,2.3
2018-09-22T08:11:16.918Z,2.3
2018-09-22T08:13:16.772Z,2.5
2018-09-22T08:14:16.967Z,2.4
2018-09-22T08:15:17.932Z,2.7
2018-09-22T08:16:17.630Z,2.2
2018-09-22T08:39:07.808Z,2.4
2018-09-22T08:40:07.792Z,2.3
2018-09-22T08:42:48.780Z,2.1
2018-09-22T08:43:04.860Z,2.2
2018-09-22T08:44:04.990Z,2.1
2018-09-22T08:45:22.859Z,2.3
2018-09-22T08:46:05.065Z,2.2
2018-09-22T08:47:05.063Z,2.2
2018-09-22T09:11:50.518Z,2.2
2018-09-22T09:12:32.553Z,2
2018-09-22T09:17:33.024Z,2.2
2018-09-22T09:18:15.160Z,2.1
2018-09-22T09:19:15.423Z,2
2018-09-22T09:20:15.616Z,2.3
2018-09-22T09:22:15.488Z,2
2018-09-22T09:23:33.653Z,2.2
2018-09-22T09:24:15.857Z,2.4
2018-09-22T09:25:33.634Z,2.2
2018-09-22T09:26:15.835Z,2.2
2018-09-22T09:27:15.956Z,2.4
2018-09-22T09:28:16.105Z,2.2
2018-09-22T09:29:16.127Z,2.8
2018-09-22T09:30:16.124Z,1.9
2018-09-22T09:32:34.394Z,1.8
2018-09-22T09:33:16.397Z,2.3
2018-09-22T09:34:34.406Z,2.4
2018-09-22T09:35:16.677Z,2.1
2018-09-22T09:36:16.973Z,2
2018-09-22T09:37:16.982Z,2.1
2018-09-22T09:38:17.662Z,2.4
2018-09-22T09:41:17.306Z,2
2018-09-22T09:42:35.276Z,2
2018-09-22T09:43:35.288Z,1.9
2018-09-22T09:44:17.609Z,1.9
2018-09-22T09:45:17.634Z,1.8
2018-09-22T09:46:35.658Z,2
2018-09-22T09:47:18.805Z,1.9
2018-09-22T09:48:17.941Z,1.8
2018-09-22T09:50:35.517Z,2.1
2018-09-22T09:51:36.263Z,2.2
2018-09-22T09:52:18.326Z,2.1
2018-09-22T09:53:36.265Z,2.3
2018-09-22T09:54:36.333Z,2.2
2018-09-22T09:55:18.603Z,2.1
2018-09-22T09:56:18.603Z,2
2018-09-22T09:57:18.590Z,2
2018-09-22T09:58:36.480Z,1.7
2018-09-22T09:59:18.686Z,1.9
2018-09-22T10:00:18.728Z,1.8
2018-09-22T10:01:18.791Z,1.8
2018-09-22T10:02:18.878Z,2
2018-09-22T10:03:19.026Z,2.1
2018-09-22T10:04:19.063Z,1.7
2018-09-22T10:05:19.025Z,1.8
2018-09-22T10:06:19.237Z,1.7
2018-09-22T10:09:37.173Z,1.8
2018-09-22T10:10:19.416Z,1.9
2018-09-22T10:12:37.720Z,1.9
2018-09-22T10:14:37.924Z,2
2018-09-22T10:16:19.950Z,2.2
2018-09-22T10:17:20.093Z,2
2018-09-22T10:19:20.348Z,1.7
2018-09-22T10:20:20.329Z,1.9
2018-09-22T10:21:39.249Z,2.1
2018-09-22T10:22:38.359Z,1.6
2018-09-22T10:23:20.511Z,2.1
2018-09-22T10:24:20.351Z,2
2018-09-22T10:25:20.415Z,1.8
2018-09-22T10:26:20.509Z,1.8
2018-09-22T10:27:20.622Z,1.8
2018-09-22T10:28:20.913Z,1.8
2018-09-22T10:29:20.765Z,1.9
2018-09-22T10:30:21.025Z,1.6
2018-09-22T10:31:20.926Z,1.6
2018-09-22T10:32:21.174Z,2.2
2018-09-22T10:33:21.218Z,1.8
2018-09-22T10:34:21.225Z,1.7
2018-09-22T10:35:39.148Z,1.8
2018-09-22T10:36:21.493Z,1.9
2018-09-22T10:37:21.396Z,2
2018-09-22T10:38:21.558Z,2.1
2018-09-22T10:39:39.599Z,1.8
2018-09-22T10:40:21.764Z,1.8
2018-09-22T10:41:21.904Z,1.9
2018-09-22T10:43:21.824Z,2.1
2018-09-22T10:45:22.016Z,1.9
2018-09-22T10:46:22.075Z,2
2018-09-22T10:47:22.136Z,1.9
2018-09-22T10:48:22.401Z,2
2018-09-22T10:49:40.111Z,28.6
2018-09-22T10:51:22.585Z,76.900002
2018-09-22T10:52:40.729Z,26.200001
2018-09-22T10:53:22.735Z,15
2018-09-22T10:54:22.786Z,19.5
2018-09-22T10:55:22.781Z,11.1
2018-09-22T10:56:23.090Z,2.2
2018-09-22T10:57:41.070Z,2.1
2018-09-22T10:58:23.313Z,1.9
2018-09-22T10:59:23.369Z,1.5
2018-09-22T11:00:23.456Z,1.7
2018-09-22T11:01:23.783Z,1.8
2018-09-22T11:02:23.505Z,1.5
2018-09-22T11:03:41.557Z,1.6
2018-09-22T11:04:23.684Z,1.7
2018-09-22T11:05:23.673Z,1.8
2018-09-22T11:06:23.687Z,1.6
2018-09-22T11:07:41.700Z,1.8
2018-09-22T11:08:23.982Z,1.7
2018-09-22T11:09:24.032Z,1.7
2018-09-22T11:10:24.064Z,1.8
2018-09-22T11:11:24.092Z,1.6
2018-09-22T11:12:24.140Z,1.8
2018-09-22T11:13:24.370Z,1.9
2018-09-22T11:14:42.147Z,1.6
2018-09-22T11:15:24.336Z,1.5
2018-09-22T11:16:24.490Z,1.7
2018-09-22T11:17:42.432Z,1.7
2018-09-22T11:18:42.582Z,1.6
2018-09-22T11:19:24.841Z,1.7
2018-09-22T11:20:24.933Z,1.9
2018-09-22T11:21:25.054Z,1.7
2018-09-22T11:22:43.153Z,1.8
2018-09-22T11:23:25.223Z,1.9
2018-09-22T11:24:25.384Z,1.5
2018-09-22T11:25:25.464Z,2
2018-09-22T11:26:25.520Z,1.6
2018-09-22T11:27:25.571Z,1.9
2018-09-22T11:28:25.685Z,1.7
2018-09-22T11:29:25.813Z,1.7
2018-09-22T11:30:25.717Z,2
2018-09-22T11:31:26.723Z,1.9
2018-09-22T11:32:25.982Z,2.3
2018-09-22T11:33:25.915Z,2.8
2018-09-22T11:34:26.003Z,2.9
2018-09-22T11:35:26.298Z,3.7
2018-09-22T11:36:26.255Z,2.9
2018-09-22T11:37:44.128Z,2.7
2018-09-22T11:38:26.369Z,3.6
2018-09-22T11:39:26.580Z,2.3
2018-09-22T11:40:26.517Z,2.4
2018-09-22T11:41:44.521Z,2.3
2018-09-22T11:42:26.716Z,2.1
2018-09-22T11:43:26.883Z,1.9
2018-09-22T11:44:26.923Z,2
2018-09-22T11:47:10.303Z,2.1
2018-09-22T11:47:44.391Z,2.2
2018-09-22T11:48:27.642Z,2
2018-09-22T11:49:45.774Z,2
2018-09-22T11:52:54.358Z,1.8
2018-09-22T11:53:10.488Z,1.7
2018-09-22T11:57:32.481Z,2
2018-09-22T11:57:48.700Z,2
2018-09-22T11:59:06.607Z,1.8
2018-09-22T11:59:48.985Z,1.9
2018-09-22T12:00:48.929Z,1.9
2018-09-22T12:02:06.895Z,2
2018-09-22T12:02:49.107Z,1.9
2018-09-22T12:24:10.588Z,1.8
2018-09-22T12:24:26.608Z,1.9
2018-09-22T12:25:44.536Z,1.3
2018-09-22T12:26:26.734Z,1.3
2018-09-22T12:27:27.737Z,1.3
2018-09-22T12:28:27.022Z,1.4
2018-09-22T12:29:44.966Z,1.5
2018-09-22T12:30:45.097Z,1.4
2018-09-22T12:32:27.473Z,1.8
2018-09-22T12:33:27.506Z,1.4
2018-09-22T12:34:27.696Z,1.3
2018-09-22T12:35:27.680Z,1.5
2018-09-22T12:36:27.555Z,1.6
2018-09-22T12:37:27.578Z,1.3
2018-09-22T12:38:27.682Z,1.6
2018-09-22T12:39:27.796Z,1.5
2018-09-22T12:40:27.850Z,1.5
2018-09-22T12:41:27.918Z,1.6
2018-09-22T12:42:28.052Z,1.8
2018-09-22T12:43:46.099Z,1.5
2018-09-22T12:44:28.107Z,1.5
2018-09-22T12:45:28.176Z,1.6
2018-09-22T12:46:28.332Z,1.4
2018-09-22T12:47:28.636Z,1.7
2018-09-22T12:48:46.579Z,1.8
2018-09-22T12:49:28.556Z,1.8
2018-09-22T12:50:46.469Z,2.1
2018-09-22T12:51:46.625Z,1.7
2018-09-22T12:52:28.597Z,1.9
2018-09-22T12:53:28.785Z,1.9
2018-09-22T12:54:28.938Z,1.9
2018-09-22T12:55:28.925Z,4.2
2018-09-22T12:56:28.958Z,2.2
2018-09-22T12:57:29.009Z,1.9
2018-09-22T12:58:47.055Z,2
2018-09-22T12:59:29.257Z,1.7
2018-09-22T13:00:29.201Z,1.7
2018-09-22T13:02:27.162Z,1.7
2018-09-22T13:03:27.226Z,1.9
2018-09-22T13:30:42.453Z,1.9
2018-09-22T13:31:16.464Z,1.8
2018-09-22T13:32:16.318Z,1.8
2018-09-22T13:33:16.478Z,1.9
2018-09-22T13:33:58.812Z,1.8
2018-09-22T13:35:16.741Z,2.1
2018-09-22T13:35:58.780Z,1.7
2018-09-22T13:36:58.858Z,1.8
2018-09-22T13:37:59.044Z,1.9
2018-09-22T13:38:59.461Z,2
2018-09-22T13:40:17.069Z,2
2018-09-22T13:40:59.290Z,1.9
2018-09-22T13:41:59.915Z,1.7
2018-09-22T13:44:40.768Z,1.8
2018-09-22T13:45:14.705Z,2.1
2018-09-22T13:45:56.985Z,1.9
2018-09-22T13:47:14.921Z,1.7
2018-09-22T13:47:57.238Z,1.8
2018-09-22T13:48:57.302Z,2
2018-09-22T13:51:20.534Z,1.8
2018-09-22T13:51:36.907Z,1.7
2018-09-22T13:54:17.746Z,1.8
2018-09-22T13:54:34.002Z,1.7
2018-09-22T13:55:51.753Z,2.1
2018-09-22T13:56:34.153Z,1.6
2018-09-22T13:57:34.209Z,1.6
2018-09-22T13:58:34.130Z,2
2018-09-22T13:59:34.317Z,1.7
2018-09-22T14:01:34.455Z,1.6
2018-09-22T14:02:52.415Z,1.7
2018-09-22T14:03:52.809Z,1.7
2018-09-22T14:04:34.700Z,2
2018-09-22T14:05:34.797Z,1.6
2018-09-22T14:06:52.714Z,1.8
2018-09-22T14:07:34.935Z,1.5
2018-09-22T14:09:35.058Z,1.8
2018-09-22T14:11:53.024Z,1.4
2018-09-22T14:12:35.394Z,1.6
2018-09-22T14:14:35.278Z,1.7
2018-09-22T14:15:35.368Z,1.5
2018-09-22T14:17:35.470Z,1.7
2018-09-22T14:18:35.595Z,1.6
2018-09-22T14:19:53.580Z,1.8
2018-09-22T14:20:35.990Z,1.8
2018-09-22T14:23:53.722Z,1.8
2018-09-22T14:24:53.785Z,2.2
2018-09-22T14:25:36.001Z,2.1
2018-09-22T14:26:36.046Z,1.5
2018-09-22T14:27:54.169Z,1.6
2018-09-22T14:28:54.139Z,1.5
2018-09-22T14:29:54.247Z,1.5
2018-09-22T14:30:36.461Z,1.5
2018-09-22T14:31:54.400Z,2
2018-09-22T14:32:36.764Z,1.8
2018-09-22T14:34:36.857Z,1.7
2018-09-22T14:35:36.856Z,1.7
2018-09-22T14:36:37.949Z,1.6
2018-09-22T14:37:37.018Z,1.6
2018-09-22T14:38:37.077Z,1.7
2018-09-22T14:39:37.263Z,1.8
2018-09-22T14:40:37.150Z,1.5
2018-09-22T14:41:37.090Z,1.8
2018-09-22T14:42:37.271Z,1.8
2018-09-22T14:43:37.238Z,1.6
2018-09-22T14:44:37.256Z,1.6
2018-09-22T14:45:55.209Z,1.6
2018-09-22T14:46:37.486Z,1.5
2018-09-22T14:47:37.649Z,1.6
2018-09-22T14:48:37.788Z,1.7
2018-09-22T14:49:37.795Z,1.6
2018-09-22T14:50:37.910Z,1.6
2018-09-22T14:51:38.860Z,1.6
2018-09-22T14:52:37.883Z,1.6
2018-09-22T14:53:37.985Z,1.6
2018-09-22T14:54:38.132Z,1.6
2018-09-22T14:55:38.214Z,1.6
2018-09-22T14:56:38.295Z,1.5
2018-09-22T14:57:56.249Z,1.6
2018-09-22T14:58:56.530Z,1.8
2018-09-22T15:00:38.681Z,1.7
2018-09-22T15:01:38.717Z,1.7
2018-09-22T15:03:38.955Z,1.6
2018-09-22T15:04:38.819Z,1.5
2018-09-22T15:05:39.011Z,2
2018-09-22T15:06:38.989Z,1.6
2018-09-22T15:07:38.871Z,1.5
2018-09-22T15:09:39.209Z,1.4
2018-09-22T15:12:39.313Z,1.5
2018-09-22T15:13:39.454Z,1.6
2018-09-22T15:14:57.249Z,1.4
2018-09-22T15:15:39.437Z,1.7
2018-09-22T15:16:57.579Z,2.3
2018-09-22T15:17:39.851Z,1.8
2018-09-22T15:18:39.720Z,1.6
2018-09-22T15:21:57.852Z,1.4
2018-09-22T15:22:57.923Z,1.4
2018-09-22T15:23:40.170Z,1.6
2018-09-22T15:24:40.264Z,1.6
2018-09-22T15:26:58.276Z,1.6
2018-09-22T15:27:40.485Z,1.4
2018-09-22T15:28:40.667Z,1.5
2018-09-22T15:30:58.748Z,1.9
2018-09-22T15:31:58.690Z,1.5
2018-09-22T15:32:40.885Z,1.4
2018-09-22T15:33:41.047Z,1.5
2018-09-22T15:34:58.911Z,2
2018-09-22T15:35:58.845Z,1.6
2018-09-22T15:37:41.123Z,1.5
2018-09-22T15:38:41.198Z,1.9
2018-09-22T15:39:41.256Z,1.6
2018-09-22T15:40:41.489Z,1.6
2018-09-22T15:41:41.588Z,1.3
2018-09-22T15:42:41.446Z,1.4
2018-09-22T15:43:41.654Z,1.8
2018-09-22T15:44:59.687Z,1.5
2018-09-22T15:45:41.741Z,1.6
2018-09-22T15:46:59.680Z,1.6
2018-09-22T15:47:41.789Z,1.7
2018-09-22T15:48:41.900Z,1.6
2018-09-22T15:49:41.956Z,1.8
2018-09-22T15:51:41.231Z,1.7
2018-09-22T15:52:59.900Z,1.6
2018-09-22T15:53:59.898Z,1.6
2018-09-22T15:54:42.169Z,1.7
2018-09-22T15:55:42.237Z,1.5
2018-09-22T15:56:42.298Z,1.6
2018-09-22T15:58:00.210Z,1.8
2018-09-22T15:58:42.502Z,1.8
2018-09-22T15:59:42.686Z,1.5
2018-09-22T16:01:00.489Z,1.8
2018-09-22T16:01:42.786Z,1.5
2018-09-22T16:03:42.937Z,1.7
2018-09-22T16:06:23.895Z,1.7
2018-09-22T16:06:57.931Z,1.7
2018-09-22T16:07:40.166Z,1.8
2018-09-22T16:08:40.448Z,1.6
2018-09-22T16:10:40.233Z,1.7
2018-09-22T16:11:58.199Z,1.5
2018-09-22T16:12:40.503Z,1.7
2018-09-22T16:13:40.469Z,1.6
2018-09-22T16:14:58.489Z,1.6
2018-09-22T16:15:40.809Z,1.7
2018-09-22T16:16:41.022Z,1.6
2018-09-22T16:18:40.957Z,1.6
2018-09-22T16:19:41.059Z,1.7
2018-09-22T16:34:52.795Z,1.7
2018-09-22T16:36:27.766Z,1.6
2018-09-22T16:38:45.978Z,1.7
2018-09-22T16:39:28.251Z,1.6
2018-09-22T16:40:28.265Z,1.6
2018-09-22T16:42:03.978Z,1.3
2018-09-22T16:42:46.419Z,1.5
2018-09-22T16:43:46.211Z,1.7
2018-09-22T16:44:46.372Z,1.3
2018-09-22T16:45:47.625Z,1.4
2018-09-22T16:46:28.681Z,1.5
2018-09-22T16:47:28.944Z,1.3
2018-09-22T16:48:46.808Z,1.6
2018-09-22T16:49:28.918Z,1.7
2018-09-22T16:50:46.963Z,1.6
2018-09-22T16:51:46.939Z,1.6
2018-09-22T16:52:29.071Z,1.7
2018-09-22T16:53:29.191Z,1.7
2018-09-22T16:54:30.294Z,1.4
2018-09-22T16:55:30.570Z,1.4
2018-09-22T16:56:29.508Z,1.6
2018-09-22T16:57:47.498Z,1.9
2018-09-22T16:58:29.895Z,1.7
2018-09-22T16:59:47.698Z,1.9
2018-09-22T17:00:29.933Z,1.7
2018-09-22T17:01:29.994Z,1.8
2018-09-22T17:02:29.246Z,2